sensor_id;sensor_type;location;lat;lon;timestamp;P1;durP1;ratioP1;P2;durP2;ratioP2
72676;SDS011;60755;51.374;10.662;2022-11-20T06:02:15;31.23;;;15.27;;
72676;SDS011;60755;51.374;10.662;2022-11-20T06:04:42;103.83;;;33.47;;
72676;SDS011;60755;51.374;10.662;2022-11-20T06:07:08;50.13;;;20.00;;
72676;SDS011;60755;51.374;10.662;2022-11-20T06:09:35;46.27;;;18.63;;
72676;SDS011;60755;51.374;10.662;2022-11-20T06:12:01;39.97;;;16.80;;
72676;SDS011;60755;51.374;10.662;2022-11-20T06:14:28;25.50;;;12.07;;
72676;SDS011;60755;51.374;10.662;2022-11-20T06:16:54;20.30;;;10.63;;
72676;SDS011;60755;51.374;10.662;2022-11-20T06:19:22;16.13;;;8.20;;
72676;SDS011;60755;51.374;10.662;2022-11-20T06:21:49;8.80;;;6.10;;
72676;SDS011;60755;51.374;10.662;2022-11-20T06:24:15;10.50;;;6.80;;
72676;SDS011;60755;51.374;10.662;2022-11-20T06:26:42;10.53;;;6.60;;
72676;SDS011;60755;51.374;10.662;2022-11-20T06:29:09;35.63;;;16.60;;
72676;SDS011;60755;51.374;10.662;2022-11-20T06:31:36;100.23;;;32.87;;
72676;SDS011;60755;51.374;10.662;2022-11-20T06:34:02;39.83;;;17.00;;
72676;SDS011;60755;51.374;10.662;2022-11-20T06:36:30;33.20;;;14.00;;
72676;SDS011;60755;51.374;10.662;2022-11-20T06:38:57;46.73;;;19.10;;
72676;SDS011;60755;51.374;10.662;2022-11-20T06:41:23;45.77;;;19.10;;
72676;SDS011;60755;51.374;10.662;2022-11-20T06:43:50;55.67;;;24.30;;
72676;SDS011;60755;51.374;10.662;2022-11-20T06:46:17;55.10;;;24.83;;
72676;SDS011;60755;51.374;10.662;2022-11-20T06:48:45;63.43;;;27.53;;
72676;SDS011;60755;51.374;10.662;2022-11-20T06:51:12;64.00;;;28.70;;
72676;SDS011;60755;51.374;10.662;2022-11-20T06:53:40;61.53;;;27.13;;
72676;SDS011;60755;51.374;10.662;2022-11-20T06:56:06;44.83;;;20.87;;
72676;SDS011;60755;51.374;10.662;2022-11-20T06:58:33;36.90;;;17.67;;
72676;SDS011;60755;51.374;10.662;2022-11-20T07:01:01;52.63;;;21.37;;
72676;SDS011;60755;51.374;10.662;2022-11-20T07:03:29;46.93;;;19.93;;
72676;SDS011;60755;51.374;10.662;2022-11-20T07:05:56;47.37;;;19.83;;
72676;SDS011;60755;51.374;10.662;2022-11-20T07:08:23;44.73;;;21.33;;
72676;SDS011;60755;51.374;10.662;2022-11-20T07:10:51;43.03;;;18.20;;
72676;SDS011;60755;51.374;10.662;2022-11-20T07:13:18;69.67;;;27.43;;
72676;SDS011;60755;51.374;10.662;2022-11-20T07:15:44;79.20;;;30.03;;
72676;SDS011;60755;51.374;10.662;2022-11-20T07:18:11;53.73;;;21.53;;
72676;SDS011;60755;51.374;10.662;2022-11-20T07:20:37;49.07;;;20.53;;
72676;SDS011;60755;51.374;10.662;2022-11-20T07:23:04;40.00;;;19.17;;
72676;SDS011;60755;51.374;10.662;2022-11-20T07:25:30;35.43;;;16.50;;
72676;SDS011;60755;51.374;10.662;2022-11-20T07:27:58;34.07;;;15.37;;
72676;SDS011;60755;51.374;10.662;2022-11-20T07:30:25;31.70;;;15.10;;
72676;SDS011;60755;51.374;10.662;2022-11-20T07:32:52;57.30;;;28.97;;
72676;SDS011;60755;51.374;10.662;2022-11-20T07:35:19;46.97;;;21.13;;
72676;SDS011;60755;51.374;10.662;2022-11-20T07:37:46;41.73;;;20.30;;
72676;SDS011;60755;51.374;10.662;2022-11-20T07:40:13;51.57;;;25.97;;
72676;SDS011;60755;51.374;10.662;2022-11-20T07:42:46;34.13;;;18.27;;
72676;SDS011;60755;51.374;10.662;2022-11-20T07:45:15;28.97;;;14.90;;
72676;SDS011;60755;51.374;10.662;2022-11-20T07:47:42;33.67;;;15.83;;
72676;SDS011;60755;51.374;10.662;2022-11-20T07:50:08;34.60;;;18.07;;
72676;SDS011;60755;51.374;10.662;2022-11-20T07:52:35;38.00;;;20.97;;
72676;SDS011;60755;51.374;10.662;2022-11-20T07:55:02;35.73;;;16.63;;
72676;SDS011;60755;51.374;10.662;2022-11-20T07:57:28;37.20;;;20.53;;
72676;SDS011;60755;51.374;10.662;2022-11-20T07:59:55;37.33;;;19.40;;
72676;SDS011;60755;51.374;10.662;2022-11-20T08:02:23;29.40;;;15.10;;
72676;SDS011;60755;51.374;10.662;2022-11-20T08:04:49;28.23;;;14.87;;
72676;SDS011;60755;51.374;10.662;2022-11-20T08:07:16;39.70;;;20.63;;
72676;SDS011;60755;51.374;10.662;2022-11-20T08:09:42;37.30;;;18.17;;
72676;SDS011;60755;51.374;10.662;2022-11-20T08:12:09;21.37;;;11.80;;
72676;SDS011;60755;51.374;10.662;2022-11-20T08:15:01;20.93;;;10.47;;
72676;SDS011;60755;51.374;10.662;2022-11-20T08:17:29;21.50;;;11.23;;
72676;SDS011;60755;51.374;10.662;2022-11-20T08:19:55;24.30;;;13.03;;
72676;SDS011;60755;51.374;10.662;2022-11-20T08:22:22;21.83;;;11.90;;
72676;SDS011;60755;51.374;10.662;2022-11-20T08:24:49;21.77;;;10.97;;
72676;SDS011;60755;51.374;10.662;2022-11-20T08:27:16;21.33;;;10.10;;
72676;SDS011;60755;51.374;10.662;2022-11-20T08:29:42;19.87;;;9.97;;
72676;SDS011;60755;51.374;10.662;2022-11-20T08:32:09;18.13;;;10.27;;
72676;SDS011;60755;51.374;10.662;2022-11-20T08:34:36;20.70;;;11.07;;
72676;SDS011;60755;51.374;10.662;2022-11-20T08:37:03;19.60;;;9.70;;
72676;SDS011;60755;51.374;10.662;2022-11-20T08:39:29;23.20;;;10.87;;
72676;SDS011;60755;51.374;10.662;2022-11-20T08:41:56;18.23;;;9.73;;
72676;SDS011;60755;51.374;10.662;2022-11-20T08:44:22;17.93;;;9.90;;
72676;SDS011;60755;51.374;10.662;2022-11-20T08:46:49;23.63;;;11.80;;
72676;SDS011;60755;51.374;10.662;2022-11-20T08:49:15;23.63;;;12.83;;
72676;SDS011;60755;51.374;10.662;2022-11-20T08:51:44;30.27;;;16.80;;
72676;SDS011;60755;51.374;10.662;2022-11-20T08:54:12;35.70;;;19.43;;
72676;SDS011;60755;51.374;10.662;2022-11-20T08:56:39;50.37;;;27.30;;
72676;SDS011;60755;51.374;10.662;2022-11-20T08:59:06;55.80;;;28.10;;
72676;SDS011;60755;51.374;10.662;2022-11-20T09:01:32;92.27;;;45.37;;
72676;SDS011;60755;51.374;10.662;2022-11-20T09:03:58;66.07;;;34.00;;
72676;SDS011;60755;51.374;10.662;2022-11-20T09:06:25;37.60;;;20.73;;
72676;SDS011;60755;51.374;10.662;2022-11-20T09:08:53;48.70;;;27.33;;
72676;SDS011;60755;51.374;10.662;2022-11-20T09:11:20;37.80;;;21.23;;
72676;SDS011;60755;51.374;10.662;2022-11-20T09:13:46;34.30;;;18.53;;
72676;SDS011;60755;51.374;10.662;2022-11-20T09:16:13;46.17;;;22.90;;
72676;SDS011;60755;51.374;10.662;2022-11-20T09:18:39;38.73;;;19.50;;
72676;SDS011;60755;51.374;10.662;2022-11-20T09:21:06;36.53;;;17.93;;
72676;SDS011;60755;51.374;10.662;2022-11-20T09:23:35;37.10;;;20.87;;
72676;SDS011;60755;51.374;10.662;2022-11-20T09:26:04;27.87;;;16.37;;
72676;SDS011;60755;51.374;10.662;2022-11-20T09:28:31;37.90;;;20.60;;
72676;SDS011;60755;51.374;10.662;2022-11-20T09:30:58;23.47;;;13.33;;
72676;SDS011;60755;51.374;10.662;2022-11-20T09:33:25;43.73;;;23.73;;
72676;SDS011;60755;51.374;10.662;2022-11-20T09:35:51;32.23;;;17.10;;
72676;SDS011;60755;51.374;10.662;2022-11-20T09:38:18;41.80;;;22.13;;
72676;SDS011;60755;51.374;10.662;2022-11-20T09:40:45;19.70;;;11.37;;
72676;SDS011;60755;51.374;10.662;2022-11-20T09:43:18;23.03;;;12.70;;
72676;SDS011;60755;51.374;10.662;2022-11-20T09:45:55;17.33;;;10.53;;
72676;SDS011;60755;51.374;10.662;2022-11-20T09:48:31;16.73;;;9.53;;
72676;SDS011;60755;51.374;10.662;2022-11-20T09:51:07;24.33;;;14.60;;
72676;SDS011;60755;51.374;10.662;2022-11-20T09:53:45;14.03;;;8.70;;
72676;SDS011;60755;51.374;10.662;2022-11-20T09:56:16;15.77;;;9.83;;
72676;SDS011;60755;51.374;10.662;2022-11-20T09:58:45;16.07;;;9.90;;
72676;SDS011;60755;51.374;10.662;2022-11-20T10:01:14;18.60;;;11.83;;
72676;SDS011;60755;51.374;10.662;2022-11-20T10:03:45;16.50;;;9.67;;
72676;SDS011;60755;51.374;10.662;2022-11-20T10:06:18;13.43;;;7.77;;
72676;SDS011;60755;51.374;10.662;2022-11-20T10:08:51;18.83;;;9.80;;
72676;SDS011;60755;51.374;10.662;2022-11-20T10:11:26;14.10;;;8.80;;
72676;SDS011;60755;51.374;10.662;2022-11-20T10:14:08;13.63;;;8.43;;
72676;SDS011;60755;51.374;10.662;2022-11-20T10:16:47;15.07;;;8.83;;
72676;SDS011;60755;51.374;10.662;2022-11-20T10:19:27;15.03;;;7.50;;
72676;SDS011;60755;51.374;10.662;2022-11-20T10:22:14;12.67;;;7.97;;
72676;SDS011;60755;51.374;10.662;2022-11-20T10:24:55;13.93;;;8.40;;
72676;SDS011;60755;51.374;10.662;2022-11-20T10:27:30;12.83;;;7.77;;
72676;SDS011;60755;51.374;10.662;2022-11-20T10:30:11;14.53;;;8.10;;
72676;SDS011;60755;51.374;10.662;2022-11-20T10:32:40;13.60;;;8.57;;
72676;SDS011;60755;51.374;10.662;2022-11-20T10:35:14;11.97;;;7.90;;
72676;SDS011;60755;51.374;10.662;2022-11-20T10:37:46;11.67;;;7.07;;
72676;SDS011;60755;51.374;10.662;2022-11-20T10:40:19;28.07;;;13.67;;
72676;SDS011;60755;51.374;10.662;2022-11-20T10:42:50;23.40;;;11.77;;
72676;SDS011;60755;51.374;10.662;2022-11-20T10:45:32;14.77;;;9.70;;
72676;SDS011;60755;51.374;10.662;2022-11-20T10:48:08;10.47;;;6.93;;
72676;SDS011;60755;51.374;10.662;2022-11-20T10:50:40;10.97;;;7.23;;
72676;SDS011;60755;51.374;10.662;2022-11-20T10:53:16;11.87;;;7.20;;
72676;SDS011;60755;51.374;10.662;2022-11-20T10:55:58;17.37;;;10.30;;
72676;SDS011;60755;51.374;10.662;2022-11-20T10:58:33;9.77;;;6.20;;
72676;SDS011;60755;51.374;10.662;2022-11-20T11:01:14;9.37;;;6.93;;
72676;SDS011;60755;51.374;10.662;2022-11-20T11:03:41;10.90;;;6.67;;
72676;SDS011;60755;51.374;10.662;2022-11-20T11:06:10;9.47;;;6.03;;
72676;SDS011;60755;51.374;10.662;2022-11-20T11:08:43;9.10;;;6.50;;
72676;SDS011;60755;51.374;10.662;2022-11-20T11:11:15;11.47;;;7.57;;
72676;SDS011;60755;51.374;10.662;2022-11-20T11:13:47;7.93;;;5.90;;
72676;SDS011;60755;51.374;10.662;2022-11-20T11:16:21;10.40;;;7.03;;
72676;SDS011;60755;51.374;10.662;2022-11-20T11:18:49;10.20;;;6.57;;
72676;SDS011;60755;51.374;10.662;2022-11-20T11:21:21;12.87;;;6.87;;
72676;SDS011;60755;51.374;10.662;2022-11-20T11:23:57;9.47;;;6.30;;
72676;SDS011;60755;51.374;10.662;2022-11-20T11:26:25;7.13;;;5.67;;
72676;SDS011;60755;51.374;10.662;2022-11-20T11:28:53;7.63;;;6.00;;
72676;SDS011;60755;51.374;10.662;2022-11-20T11:31:25;8.40;;;6.20;;
72676;SDS011;60755;51.374;10.662;2022-11-20T11:34:03;6.40;;;5.13;;
72676;SDS011;60755;51.374;10.662;2022-11-20T11:36:30;7.73;;;5.33;;
72676;SDS011;60755;51.374;10.662;2022-11-20T11:38:58;7.20;;;5.23;;
72676;SDS011;60755;51.374;10.662;2022-11-20T11:41:25;8.50;;;5.67;;
72676;SDS011;60755;51.374;10.662;2022-11-20T11:44:00;7.37;;;5.57;;
72676;SDS011;60755;51.374;10.662;2022-11-20T11:46:57;8.47;;;5.57;;
72676;SDS011;60755;51.374;10.662;2022-11-20T11:49:24;6.70;;;4.80;;
72676;SDS011;60755;51.374;10.662;2022-11-20T11:52:02;6.77;;;5.10;;
72676;SDS011;60755;51.374;10.662;2022-11-20T11:54:36;7.57;;;5.23;;
72676;SDS011;60755;51.374;10.662;2022-11-20T11:57:10;7.70;;;5.00;;
72676;SDS011;60755;51.374;10.662;2022-11-20T11:59:44;6.50;;;5.00;;
72676;SDS011;60755;51.374;10.662;2022-11-20T12:02:28;6.73;;;4.90;;
72676;SDS011;60755;51.374;10.662;2022-11-20T12:05:02;4.83;;;4.30;;
72676;SDS011;60755;51.374;10.662;2022-11-20T12:07:38;5.10;;;4.57;;
72676;SDS011;60755;51.374;10.662;2022-11-20T12:10:12;5.77;;;4.80;;
72676;SDS011;60755;51.374;10.662;2022-11-20T12:12:43;4.43;;;3.90;;
72676;SDS011;60755;51.374;10.662;2022-11-20T12:15:16;7.17;;;4.63;;
72676;SDS011;60755;51.374;10.662;2022-11-20T12:17:56;5.20;;;4.47;;
72676;SDS011;60755;51.374;10.662;2022-11-20T12:20:24;4.67;;;4.07;;
72676;SDS011;60755;51.374;10.662;2022-11-20T12:22:56;7.90;;;5.87;;
72676;SDS011;60755;51.374;10.662;2022-11-20T12:25:34;7.40;;;5.07;;
72676;SDS011;60755;51.374;10.662;2022-11-20T12:28:05;6.10;;;4.70;;
72676;SDS011;60755;51.374;10.662;2022-11-20T12:31:01;7.37;;;5.60;;
72676;SDS011;60755;51.374;10.662;2022-11-20T12:33:53;10.43;;;6.80;;
72676;SDS011;60755;51.374;10.662;2022-11-20T12:36:32;7.13;;;5.20;;
72676;SDS011;60755;51.374;10.662;2022-11-20T12:39:16;7.20;;;4.97;;
72676;SDS011;60755;51.374;10.662;2022-11-20T12:41:55;5.53;;;4.13;;
72676;SDS011;60755;51.374;10.662;2022-11-20T12:45:19;4.87;;;4.20;;
72676;SDS011;60755;51.374;10.662;2022-11-20T12:48:05;6.13;;;4.27;;
72676;SDS011;60755;51.374;10.662;2022-11-20T12:50:59;5.53;;;4.23;;
72676;SDS011;60755;51.374;10.662;2022-11-20T12:53:37;6.00;;;4.60;;
72676;SDS011;60755;51.374;10.662;2022-11-20T12:56:13;8.87;;;6.30;;
72676;SDS011;60755;51.374;10.662;2022-11-20T12:58:52;4.63;;;4.20;;
72676;SDS011;60755;51.374;10.662;2022-11-20T13:01:29;5.43;;;3.90;;
72676;SDS011;60755;51.374;10.662;2022-11-20T13:04:08;4.43;;;3.80;;
72676;SDS011;60755;51.374;10.662;2022-11-20T13:06:46;5.90;;;4.00;;
72676;SDS011;60755;51.374;10.662;2022-11-20T13:09:13;5.23;;;4.00;;
72676;SDS011;60755;51.374;10.662;2022-11-20T13:11:42;6.20;;;4.27;;
72676;SDS011;60755;51.374;10.662;2022-11-20T13:14:20;4.90;;;4.30;;
72676;SDS011;60755;51.374;10.662;2022-11-20T13:16:58;4.70;;;3.80;;
72676;SDS011;60755;51.374;10.662;2022-11-20T13:19:30;3.90;;;3.53;;
72676;SDS011;60755;51.374;10.662;2022-11-20T13:21:58;4.27;;;3.80;;
72676;SDS011;60755;51.374;10.662;2022-11-20T13:24:26;4.20;;;3.80;;
72676;SDS011;60755;51.374;10.662;2022-11-20T13:29:47;3.67;;;3.20;;
72676;SDS011;60755;51.374;10.662;2022-11-20T13:32:25;4.00;;;3.70;;
72676;SDS011;60755;51.374;10.662;2022-11-20T13:34:57;6.67;;;3.17;;
72676;SDS011;60755;51.374;10.662;2022-11-20T13:37:28;4.70;;;4.20;;
72676;SDS011;60755;51.374;10.662;2022-11-20T13:40:12;4.33;;;3.93;;
72676;SDS011;60755;51.374;10.662;2022-11-20T13:42:54;4.97;;;3.97;;
72676;SDS011;60755;51.374;10.662;2022-11-20T13:45:22;5.30;;;4.40;;
72676;SDS011;60755;51.374;10.662;2022-11-20T13:47:51;3.97;;;3.33;;
72676;SDS011;60755;51.374;10.662;2022-11-20T13:50:19;4.60;;;3.50;;
72676;SDS011;60755;51.374;10.662;2022-11-20T13:52:58;6.10;;;4.70;;
72676;SDS011;60755;51.374;10.662;2022-11-20T13:55:31;4.90;;;4.10;;
72676;SDS011;60755;51.374;10.662;2022-11-20T13:58:15;7.13;;;4.70;;
72676;SDS011;60755;51.374;10.662;2022-11-20T14:00:55;7.50;;;5.33;;
72676;SDS011;60755;51.374;10.662;2022-11-20T14:03:24;6.90;;;5.13;;
72676;SDS011;60755;51.374;10.662;2022-11-20T14:05:57;6.53;;;4.80;;
72676;SDS011;60755;51.374;10.662;2022-11-20T14:08:31;8.77;;;5.90;;
72676;SDS011;60755;51.374;10.662;2022-11-20T14:11:12;6.37;;;5.00;;
72676;SDS011;60755;51.374;10.662;2022-11-20T14:13:50;8.40;;;5.60;;
72676;SDS011;60755;51.374;10.662;2022-11-20T14:16:25;8.20;;;5.60;;
72676;SDS011;60755;51.374;10.662;2022-11-20T14:18:54;5.93;;;4.53;;
72676;SDS011;60755;51.374;10.662;2022-11-20T14:21:22;5.77;;;4.83;;
72676;SDS011;60755;51.374;10.662;2022-11-20T14:23:53;5.50;;;4.27;;
72676;SDS011;60755;51.374;10.662;2022-11-20T14:26:20;5.13;;;4.63;;
72676;SDS011;60755;51.374;10.662;2022-11-20T14:28:47;5.57;;;4.30;;
72676;SDS011;60755;51.374;10.662;2022-11-20T14:31:18;6.83;;;4.83;;
72676;SDS011;60755;51.374;10.662;2022-11-20T14:33:49;8.20;;;5.43;;
72676;SDS011;60755;51.374;10.662;2022-11-20T14:36:16;8.20;;;5.50;;
72676;SDS011;60755;51.374;10.662;2022-11-20T14:38:44;8.43;;;5.83;;
72676;SDS011;60755;51.374;10.662;2022-11-20T14:41:17;9.57;;;5.97;;
72676;SDS011;60755;51.374;10.662;2022-11-20T14:43:46;10.20;;;6.10;;
72676;SDS011;60755;51.374;10.662;2022-11-20T14:46:16;9.83;;;6.47;;
72676;SDS011;60755;51.374;10.662;2022-11-20T14:48:44;11.17;;;6.93;;
72676;SDS011;60755;51.374;10.662;2022-11-20T14:51:23;10.40;;;6.00;;
72676;SDS011;60755;51.374;10.662;2022-11-20T14:53:53;8.23;;;5.87;;
72676;SDS011;60755;51.374;10.662;2022-11-20T14:56:22;9.70;;;6.50;;
72676;SDS011;60755;51.374;10.662;2022-11-20T14:58:56;9.80;;;6.27;;
72676;SDS011;60755;51.374;10.662;2022-11-20T15:01:26;11.17;;;7.50;;
72676;SDS011;60755;51.374;10.662;2022-11-20T15:03:58;9.57;;;6.63;;
72676;SDS011;60755;51.374;10.662;2022-11-20T15:06:26;10.77;;;6.93;;
72676;SDS011;60755;51.374;10.662;2022-11-20T15:08:54;10.03;;;6.27;;
72676;SDS011;60755;51.374;10.662;2022-11-20T15:11:23;9.73;;;6.30;;
72676;SDS011;60755;51.374;10.662;2022-11-20T15:13:54;10.80;;;7.03;;
72676;SDS011;60755;51.374;10.662;2022-11-20T15:16:21;10.60;;;6.33;;
72676;SDS011;60755;51.374;10.662;2022-11-20T15:18:49;10.13;;;6.33;;
72676;SDS011;60755;51.374;10.662;2022-11-20T15:21:18;14.20;;;8.53;;
72676;SDS011;60755;51.374;10.662;2022-11-20T15:23:45;12.63;;;8.00;;
72676;SDS011;60755;51.374;10.662;2022-11-20T15:26:13;13.00;;;8.47;;
72676;SDS011;60755;51.374;10.662;2022-11-20T15:28:44;12.60;;;8.43;;
72676;SDS011;60755;51.374;10.662;2022-11-20T15:31:13;17.07;;;9.20;;
72676;SDS011;60755;51.374;10.662;2022-11-20T15:33:41;18.47;;;10.27;;
72676;SDS011;60755;51.374;10.662;2022-11-20T15:36:08;18.77;;;11.10;;
72676;SDS011;60755;51.374;10.662;2022-11-20T15:38:36;16.90;;;9.77;;
72676;SDS011;60755;51.374;10.662;2022-11-20T15:41:03;13.47;;;8.70;;
72676;SDS011;60755;51.374;10.662;2022-11-20T15:43:29;14.43;;;7.90;;
72676;SDS011;60755;51.374;10.662;2022-11-20T15:45:59;14.53;;;8.43;;
72676;SDS011;60755;51.374;10.662;2022-11-20T15:48:27;11.50;;;7.33;;
72676;SDS011;60755;51.374;10.662;2022-11-20T15:50:56;13.90;;;8.20;;
72676;SDS011;60755;51.374;10.662;2022-11-20T15:53:25;13.60;;;7.40;;
72676;SDS011;60755;51.374;10.662;2022-11-20T15:55:52;15.73;;;9.37;;
72676;SDS011;60755;51.374;10.662;2022-11-20T15:58:18;11.47;;;7.47;;
72676;SDS011;60755;51.374;10.662;2022-11-20T16:00:45;15.47;;;8.30;;
72676;SDS011;60755;51.374;10.662;2022-11-20T16:03:13;11.87;;;8.07;;
72676;SDS011;60755;51.374;10.662;2022-11-20T16:05:41;16.63;;;9.40;;
72676;SDS011;60755;51.374;10.662;2022-11-20T16:08:07;12.00;;;7.50;;
72676;SDS011;60755;51.374;10.662;2022-11-20T16:10:34;13.13;;;8.00;;
72676;SDS011;60755;51.374;10.662;2022-11-20T16:13:01;10.20;;;6.63;;
72676;SDS011;60755;51.374;10.662;2022-11-20T16:15:45;10.67;;;6.90;;
72676;SDS011;60755;51.374;10.662;2022-11-20T16:18:18;12.07;;;7.60;;
72676;SDS011;60755;51.374;10.662;2022-11-20T16:20:46;13.80;;;7.80;;
72676;SDS011;60755;51.374;10.662;2022-11-20T16:23:14;12.20;;;7.63;;
72676;SDS011;60755;51.374;10.662;2022-11-20T16:25:41;14.37;;;8.17;;
72676;SDS011;60755;51.374;10.662;2022-11-20T16:28:08;16.70;;;9.40;;
72676;SDS011;60755;51.374;10.662;2022-11-20T16:30:35;14.53;;;8.87;;
72676;SDS011;60755;51.374;10.662;2022-11-20T16:33:03;12.63;;;7.70;;
72676;SDS011;60755;51.374;10.662;2022-11-20T16:35:31;15.40;;;8.27;;
72676;SDS011;60755;51.374;10.662;2022-11-20T16:37:58;13.10;;;7.93;;
72676;SDS011;60755;51.374;10.662;2022-11-20T16:40:24;14.83;;;8.23;;
72676;SDS011;60755;51.374;10.662;2022-11-20T16:42:51;14.10;;;8.10;;
72676;SDS011;60755;51.374;10.662;2022-11-20T16:45:17;12.60;;;7.83;;
72676;SDS011;60755;51.374;10.662;2022-11-20T16:47:44;13.77;;;7.80;;
72676;SDS011;60755;51.374;10.662;2022-11-20T16:50:10;13.17;;;7.23;;
72676;SDS011;60755;51.374;10.662;2022-11-20T16:52:39;11.43;;;7.00;;
72676;SDS011;60755;51.374;10.662;2022-11-20T16:55:07;12.70;;;7.10;;
72676;SDS011;60755;51.374;10.662;2022-11-20T16:57:34;11.87;;;7.00;;
72676;SDS011;60755;51.374;10.662;2022-11-20T17:00:02;12.37;;;7.77;;
72676;SDS011;60755;51.374;10.662;2022-11-20T17:02:29;14.30;;;8.93;;
72676;SDS011;60755;51.374;10.662;2022-11-20T17:04:56;12.17;;;7.07;;
72676;SDS011;60755;51.374;10.662;2022-11-20T17:07:22;43.40;;;21.43;;
72676;SDS011;60755;51.374;10.662;2022-11-20T17:09:50;29.40;;;16.83;;
72676;SDS011;60755;51.374;10.662;2022-11-20T17:12:17;36.87;;;22.13;;
72676;SDS011;60755;51.374;10.662;2022-11-20T17:14:43;20.90;;;11.20;;
72676;SDS011;60755;51.374;10.662;2022-11-20T17:17:10;12.73;;;7.87;;
72676;SDS011;60755;51.374;10.662;2022-11-20T17:19:36;12.57;;;7.60;;
72676;SDS011;60755;51.374;10.662;2022-11-20T17:22:03;10.17;;;7.13;;
72676;SDS011;60755;51.374;10.662;2022-11-20T17:24:29;10.73;;;6.67;;
72676;SDS011;60755;51.374;10.662;2022-11-20T17:26:57;10.07;;;6.67;;
72676;SDS011;60755;51.374;10.662;2022-11-20T17:29:23;11.77;;;7.33;;
72676;SDS011;60755;51.374;10.662;2022-11-20T17:31:50;24.97;;;12.13;;
72676;SDS011;60755;51.374;10.662;2022-11-20T17:34:17;14.37;;;8.97;;
72676;SDS011;60755;51.374;10.662;2022-11-20T17:36:43;10.73;;;7.80;;
72676;SDS011;60755;51.374;10.662;2022-11-20T17:39:10;12.23;;;8.27;;
72676;SDS011;60755;51.374;10.662;2022-11-20T17:41:38;15.63;;;9.97;;
72676;SDS011;60755;51.374;10.662;2022-11-20T17:44:08;15.30;;;8.83;;
72676;SDS011;60755;51.374;10.662;2022-11-20T17:46:35;14.37;;;9.23;;
72676;SDS011;60755;51.374;10.662;2022-11-20T17:49:02;14.67;;;9.10;;
72676;SDS011;60755;51.374;10.662;2022-11-20T17:51:29;13.33;;;8.47;;
72676;SDS011;60755;51.374;10.662;2022-11-20T17:53:59;14.00;;;8.90;;
72676;SDS011;60755;51.374;10.662;2022-11-20T17:56:29;15.37;;;8.87;;
72676;SDS011;60755;51.374;10.662;2022-11-20T17:59:15;15.37;;;8.47;;
72676;SDS011;60755;51.374;10.662;2022-11-20T18:01:42;12.70;;;8.10;;
72676;SDS011;60755;51.374;10.662;2022-11-20T18:04:09;14.33;;;8.83;;
72676;SDS011;60755;51.374;10.662;2022-11-20T18:06:36;14.03;;;8.77;;
72676;SDS011;60755;51.374;10.662;2022-11-20T18:09:03;14.77;;;8.47;;
72676;SDS011;60755;51.374;10.662;2022-11-20T18:11:31;13.97;;;8.50;;
72676;SDS011;60755;51.374;10.662;2022-11-20T18:14:00;13.77;;;9.07;;
72676;SDS011;60755;51.374;10.662;2022-11-20T18:16:48;16.57;;;9.40;;
72676;SDS011;60755;51.374;10.662;2022-11-20T18:19:16;15.90;;;8.93;;
72676;SDS011;60755;51.374;10.662;2022-11-20T18:21:44;21.13;;;9.57;;
72676;SDS011;60755;51.374;10.662;2022-11-20T18:24:10;17.67;;;9.87;;
72676;SDS011;60755;51.374;10.662;2022-11-20T18:26:37;14.70;;;8.40;;
72676;SDS011;60755;51.374;10.662;2022-11-20T18:29:04;14.70;;;8.80;;
72676;SDS011;60755;51.374;10.662;2022-11-20T18:31:30;14.97;;;9.60;;
72676;SDS011;60755;51.374;10.662;2022-11-20T18:33:58;13.70;;;9.10;;
72676;SDS011;60755;51.374;10.662;2022-11-20T18:36:25;13.37;;;8.20;;
72676;SDS011;60755;51.374;10.662;2022-11-20T18:38:54;15.23;;;9.70;;
72676;SDS011;60755;51.374;10.662;2022-11-20T18:41:23;19.97;;;12.03;;
72676;SDS011;60755;51.374;10.662;2022-11-20T18:44:11;20.63;;;12.03;;
72676;SDS011;60755;51.374;10.662;2022-11-20T18:46:56;16.23;;;9.13;;
72676;SDS011;60755;51.374;10.662;2022-11-20T18:49:24;16.07;;;9.53;;
72676;SDS011;60755;51.374;10.662;2022-11-20T18:51:51;16.83;;;9.40;;
72676;SDS011;60755;51.374;10.662;2022-11-20T18:54:17;13.37;;;9.40;;
72676;SDS011;60755;51.374;10.662;2022-11-20T18:56:43;16.20;;;9.57;;
72676;SDS011;60755;51.374;10.662;2022-11-20T18:59:10;16.53;;;9.43;;
72676;SDS011;60755;51.374;10.662;2022-11-20T19:01:38;17.40;;;10.40;;
72676;SDS011;60755;51.374;10.662;2022-11-20T19:04:05;17.17;;;10.27;;
72676;SDS011;60755;51.374;10.662;2022-11-20T19:06:33;18.03;;;9.70;;
72676;SDS011;60755;51.374;10.662;2022-11-20T19:09:00;14.47;;;8.83;;
72676;SDS011;60755;51.374;10.662;2022-11-20T19:11:29;16.00;;;10.17;;
72676;SDS011;60755;51.374;10.662;2022-11-20T19:13:55;16.13;;;9.57;;
72676;SDS011;60755;51.374;10.662;2022-11-20T19:16:22;17.87;;;10.07;;
72676;SDS011;60755;51.374;10.662;2022-11-20T19:18:49;16.20;;;9.43;;
72676;SDS011;60755;51.374;10.662;2022-11-20T19:21:16;16.93;;;10.10;;
72676;SDS011;60755;51.374;10.662;2022-11-20T19:23:47;16.43;;;10.07;;
72676;SDS011;60755;51.374;10.662;2022-11-20T19:26:14;18.77;;;10.83;;
72676;SDS011;60755;51.374;10.662;2022-11-20T19:28:41;21.93;;;13.03;;
72676;SDS011;60755;51.374;10.662;2022-11-20T19:31:08;23.30;;;14.60;;
72676;SDS011;60755;51.374;10.662;2022-11-20T19:33:38;21.77;;;12.70;;
72676;SDS011;60755;51.374;10.662;2022-11-20T19:36:08;20.57;;;11.67;;
72676;SDS011;60755;51.374;10.662;2022-11-20T19:38:35;19.37;;;11.57;;
72676;SDS011;60755;51.374;10.662;2022-11-20T19:41:03;24.03;;;12.60;;
72676;SDS011;60755;51.374;10.662;2022-11-20T19:43:30;22.07;;;11.77;;
72676;SDS011;60755;51.374;10.662;2022-11-20T19:45:57;21.97;;;11.80;;
72676;SDS011;60755;51.374;10.662;2022-11-20T19:48:23;20.27;;;11.60;;
72676;SDS011;60755;51.374;10.662;2022-11-20T19:50:50;24.97;;;13.70;;
72676;SDS011;60755;51.374;10.662;2022-11-20T19:53:16;26.80;;;15.17;;
72676;SDS011;60755;51.374;10.662;2022-11-20T19:55:53;28.97;;;16.20;;
72676;SDS011;60755;51.374;10.662;2022-11-20T19:58:22;27.43;;;14.93;;
72676;SDS011;60755;51.374;10.662;2022-11-20T20:00:48;27.30;;;15.47;;
72676;SDS011;60755;51.374;10.662;2022-11-20T20:03:15;25.90;;;15.10;;
72676;SDS011;60755;51.374;10.662;2022-11-20T20:05:42;23.50;;;13.30;;
72676;SDS011;60755;51.374;10.662;2022-11-20T20:08:08;24.43;;;13.33;;
72676;SDS011;60755;51.374;10.662;2022-11-20T20:10:35;20.67;;;11.80;;
72676;SDS011;60755;51.374;10.662;2022-11-20T20:13:01;20.27;;;11.60;;
72676;SDS011;60755;51.374;10.662;2022-11-20T20:15:29;21.20;;;12.17;;
72676;SDS011;60755;51.374;10.662;2022-11-20T20:17:56;21.43;;;12.63;;
72676;SDS011;60755;51.374;10.662;2022-11-20T20:20:23;27.73;;;15.83;;
72676;SDS011;60755;51.374;10.662;2022-11-20T20:22:50;35.67;;;19.50;;
72676;SDS011;60755;51.374;10.662;2022-11-20T20:25:16;26.10;;;14.23;;
72676;SDS011;60755;51.374;10.662;2022-11-20T20:27:43;34.03;;;16.57;;
72676;SDS011;60755;51.374;10.662;2022-11-20T20:30:10;25.87;;;15.40;;
72676;SDS011;60755;51.374;10.662;2022-11-20T20:32:38;24.13;;;14.17;;
72676;SDS011;60755;51.374;10.662;2022-11-20T20:35:05;25.40;;;13.03;;
72676;SDS011;60755;51.374;10.662;2022-11-20T20:37:31;22.87;;;11.93;;
72676;SDS011;60755;51.374;10.662;2022-11-20T20:39:58;20.93;;;11.43;;